Hauptseite
METAR-TAF:

METAR-TAF

Flughäfen :

Middle Wallop Airfield

Middle Wallop, England

Breite: 51-09N, Länge: 001-34W, Höhe: 91 m

Beobachtung

Neuester Wetterbericht von vor 1 Stunde und 6 Minuten, um 13:50 UTC
Wind 6 kt aus Nord/Nordwest
Temperatur 19°C
Luftfeuchtigkeit 43%
Luftdruck 1027 hPa
Sichtweite 10 km oder mehr

METAR: EGVP 111350Z AUTO 33006KT 9999 SCT050/// 19/06 Q1027

Zeit: 15:56 (14:56 UTC)

Prognose

Neuester Wetterbericht von vor 56 Minuten, um 14:00 UTC
Gültige Prognose vom 10 um 14 UTC bis 10 um 16 UTC
Wind 10 kt aus Nordwest
Sichtweite 10 km oder mehr
Durchbrochene Bewölkung in der Höhe von 4500 ft

TAF: EGVP 101400Z 1014/1016 31010KT 9999 BKN045

Wetterbeobachtungen und Prognosen von mehr als 4000 Flughäfen (METAR und TAF Bericht).

Die verfügbaren Stationen werden durch gelbe und rote Markierungen auf der Karte dargestellt.

Führen Sie die Maus auf sie, um den Namen der Station zu sehen.

Darauf klicken, um die Beobachtung von Wetterbeobachtungen und Prognosen zu sehen.

Um die Karte zu ändern : klicken Sie auf den grünen Tasten mit einem schwarzen Kreuz Zum Vergrößern, auf den grünen Button mit einem Gedankenstrich zu verkleinern, oder auf die grünen Pfeile für benachbarte Karten.


METAR-TAF: